Etusivu
METAR-TAF:

METAR-TAF

Lentoasemat :

Rygge, Norja

Leveyspiiri: 59-23N, Pituuspiiri: 010-47E, korkeus merenpinnasta: 5 m

Tämänhetkinen sää

Tämä raportti tehtiin 43 minuuttia sitten, kello 01.20 UTC
Tuuli 5 kn etelästä/lounaasta
Lämpötila 3°C
Kosteus 81%
Ilmanpaine 1002 hPa
Näkyvyys 10 km tai enemmän

METAR: ENRY 250120Z AUTO 21005KT 9999NDV NCD 03/M00 Q1002

Aika: 03:03 (02:03 UTC)

Sääennuste

Ennuste voimassa 25. päivästä klo 00 UTC - 25. päivään klo 24 UTC
Tuuli 8 kn etelästä/lounaasta
Näkyvyys 10 km tai enemmän
ei pilviä alle 1500 m:ssä eikä cumulonimbus-pilviä
Todennäköisyys 30% :
Ajoittain
25. päivästä klo 02 UTC - 25. päivään klo 18 UTC
Hajonneita pilviä 1200 ft:n korkeudessa, Cumulonimbus.
vesikuuroja, pikkurakeita tai lumirakeita

TAF: ENRY 2500/2524 21008KT CAVOK PROB30 TEMPO 2502/2518 SHRAGS BKN012CB

Säähavainnot ja -ennusteet yli 4000 lentoasemalta (METAR- ja TAF-raportit).

Käytössä olevat sääasemat on merkitty karttaan keltaisilla ja punaisilla pisteillä.

Aseta hiiri pisteen päälle nähdäksesi sääaseman nimen.

Klikkaa sitten nähdäksesi säähavainnot ja -ennusteet.

Kartan vaihtaminen: klikkaa mustalla rastilla varustettuja vihreitä pisteitä, niin voit zoomata sisään; viivalla varustettua vihreää pistettä, niin voit zoomata ulos tai vihreitä nuolia, niin pääset viereisille kartoille.


METAR-TAF: